Time;durP1;ratioP1;P1;durP2;ratioP2;P2;SDS_P1;SDS_P2;PMS_P1;PMS_P2;Temp;Humidity;BMP_temperature;BMP_pressure;BME280_temperature;BME280_humidity;BME280_pressure;Samples;Min_cycle;Max_cycle;Signal;HPM_P1;HPM_P2
2020/12/18 00:01:46;;;;;;;12.35;7.95;;;;;;;;;;4348099;33;20591;-62
2020/12/18 00:04:12;;;;;;;11.75;7.97;;;;;;;;;;4348099;32;20101;-61
2020/12/18 00:06:38;;;;;;;13.68;8.05;;;;;;;;;;4346631;33;20426;-61
2020/12/18 00:09:05;;;;;;;12.20;7.97;;;;;;;;;;4346451;33;20228;-62
2020/12/18 00:11:31;;;;;;;12.20;7.80;;;;;;;;;;4346754;33;20493;-61
2020/12/18 00:13:56;;;;;;;13.30;8.05;;;;;;;;;;4335053;33;20079;-61
2020/12/18 00:16:23;;;;;;;13.62;7.90;;;;;;;;;;4347738;33;20115;-62
2020/12/18 00:18:49;;;;;;;12.98;7.87;;;;;;;;;;4346884;33;20541;-62
2020/12/18 00:21:19;;;;;;;12.52;7.50;;;;;;;;;;4334545;33;20109;-62
2020/12/18 00:23:45;;;;;;;13.00;7.32;;;;;;;;;;4347919;32;20064;-61
2020/12/18 00:26:10;;;;;;;12.20;8.18;;;;;;;;;;4346247;32;20075;-63
2020/12/18 00:28:36;;;;;;;12.30;7.78;;;;;;;;;;4347560;32;20539;-61
2020/12/18 00:31:02;;;;;;;12.32;7.70;;;;;;;;;;4347449;32;20444;-62
2020/12/18 00:33:27;;;;;;;15.65;8.73;;;;;;;;;;4347778;33;20542;-62
2020/12/18 00:35:53;;;;;;;12.82;8.73;;;;;;;;;;4350199;33;20086;-62
2020/12/18 00:38:19;;;;;;;12.65;8.07;;;;;;;;;;4350094;32;20130;-62
2020/12/18 00:40:46;;;;;;;13.25;8.73;;;;;;;;;;4346411;33;20477;-61
2020/12/18 00:43:12;;;;;;;12.55;7.62;;;;;;;;;;4347556;32;20514;-62
2020/12/18 00:45:37;;;;;;;12.35;7.85;;;;;;;;;;4334209;33;20091;-62
2020/12/18 00:48:04;;;;;;;13.35;8.38;;;;;;;;;;4358578;32;20494;-62
2020/12/18 00:50:30;;;;;;;13.82;8.35;;;;;;;;;;4346499;33;20078;-62
2020/12/18 00:52:56;;;;;;;13.15;7.95;;;;;;;;;;4346009;32;20098;-62
2020/12/18 00:55:22;;;;;;;13.82;8.35;;;;;;;;;;4358370;32;20078;-61
2020/12/18 00:57:48;;;;;;;13.77;7.62;;;;;;;;;;4347219;32;20512;-63
2020/12/18 01:00:14;;;;;;;12.40;7.55;;;;;;;;;;4345961;33;20461;-62
2020/12/18 01:02:39;;;;;;;12.57;7.82;;;;;;;;;;4346100;33;20445;-61
2020/12/18 01:05:05;;;;;;;11.93;7.60;;;;;;;;;;4346074;33;20179;-62
2020/12/18 01:07:31;;;;;;;14.15;8.02;;;;;;;;;;4347084;32;20241;-62
2020/12/18 01:09:57;;;;;;;12.75;8.63;;;;;;;;;;4345623;33;20153;-61
2020/12/18 01:12:22;;;;;;;12.85;8.35;;;;;;;;;;4345874;33;20074;-63
2020/12/18 01:14:48;;;;;;;12.25;8.00;;;;;;;;;;4345760;33;20082;-61
2020/12/18 01:17:14;;;;;;;12.00;8.18;;;;;;;;;;4346887;33;20162;-63
2020/12/18 01:19:40;;;;;;;14.15;7.50;;;;;;;;;;4347246;32;20558;-61
2020/12/18 01:22:06;;;;;;;14.43;8.07;;;;;;;;;;4333273;33;20074;-62
2020/12/18 01:24:31;;;;;;;12.13;7.78;;;;;;;;;;4345550;33;20082;-62
2020/12/18 01:26:57;;;;;;;13.38;8.15;;;;;;;;;;4345434;32;20453;-61
2020/12/18 01:29:23;;;;;;;;;;;;;;;;;;4345807;33;20079;-62
2020/12/18 01:31:48;;;;;;;11.45;7.47;;;;;;;;;;4347195;32;19989;-62
2020/12/18 01:34:14;;;;;;;12.63;7.40;;;;;;;;;;4347403;32;20093;-62
2020/12/18 01:36:40;;;;;;;14.05;8.55;;;;;;;;;;4347333;32;20562;-62
2020/12/18 01:39:05;;;;;;;;;;;;;;;;;;4345215;33;20083;-62
2020/12/18 01:41:31;;;;;;;12.55;7.82;;;;;;;;;;4357968;32;19997;-62
2020/12/18 01:43:57;;;;;;;12.85;7.70;;;;;;;;;;4347082;32;20149;-62
2020/12/18 01:46:26;;;;;;;12.35;7.47;;;;;;;;;;4347027;32;20091;-61
2020/12/18 01:48:51;;;;;;;12.98;7.87;;;;;;;;;;4333310;33;20159;-62
2020/12/18 01:51:17;;;;;;;11.07;7.20;;;;;;;;;;4345395;33;20126;-63
2020/12/18 01:53:43;;;;;;;11.25;7.55;;;;;;;;;;4345455;33;20143;-62
2020/12/18 01:56:09;;;;;;;12.00;7.32;;;;;;;;;;4344895;33;20510;-62
2020/12/18 01:58:37;;;;;;;10.88;7.03;;;;;;;;;;4345661;33;20149;-62
2020/12/18 02:01:08;;;;;;;10.77;7.03;;;;;;;;;;4333140;33;20085;-62
2020/12/18 02:03:34;;;;;;;11.65;7.75;;;;;;;;;;4346698;32;20086;-62
2020/12/18 02:06:07;;;;;;;13.73;7.75;;;;;;;;;;4344974;33;20524;-62
2020/12/18 02:08:32;;;;;;;12.48;7.68;;;;;;;;;;4345478;32;20469;-61
2020/12/18 02:10:58;;;;;;;13.20;8.25;;;;;;;;;;4345347;33;20063;-63
2020/12/18 02:13:24;;;;;;;11.50;6.95;;;;;;;;;;4346714;32;20078;-62
2020/12/18 02:15:51;;;;;;;11.52;7.28;;;;;;;;;;4332951;33;20071;-62
2020/12/18 02:18:19;;;;;;;12.75;7.70;;;;;;;;;;4346418;33;20071;-62
2020/12/18 02:20:44;;;;;;;12.43;7.93;;;;;;;;;;4345322;33;20160;-62
2020/12/18 02:23:10;;;;;;;11.82;7.28;;;;;;;;;;4345004;33;20059;-61
2020/12/18 02:25:37;;;;;;;;;;;;;;;;;;4346509;32;20070;-62
2020/12/18 02:28:03;;;;;;;12.32;7.57;;;;;;;;;;4357480;32;20051;-61
2020/12/18 02:30:29;;;;;;;13.80;8.43;;;;;;;;;;4345065;33;20098;-61
2020/12/18 02:32:54;;;;;;;;;;;;;;;;;;4346544;32;20465;-61
2020/12/18 02:35:20;;;;;;;11.85;7.65;;;;;;;;;;4346431;33;20065;-61
2020/12/18 02:37:46;;;;;;;10.77;6.78;;;;;;;;;;4346199;32;20545;-61
2020/12/18 02:40:11;;;;;;;12.95;8.10;;;;;;;;;;4345256;33;20118;-62
2020/12/18 02:42:37;;;;;;;12.23;7.93;;;;;;;;;;4344843;33;20479;-62
2020/12/18 02:45:03;;;;;;;11.88;8.02;;;;;;;;;;4344808;33;20224;-62
2020/12/18 02:47:29;;;;;;;11.25;7.40;;;;;;;;;;4346495;32;20067;-62
2020/12/18 02:49:55;;;;;;;12.98;8.00;;;;;;;;;;4332740;32;20162;-61
2020/12/18 02:52:21;;;;;;;11.10;7.10;;;;;;;;;;4348241;32;20541;-61
2020/12/18 02:54:47;;;;;;;11.10;6.90;;;;;;;;;;4348548;33;20090;-62
2020/12/18 02:57:12;;;;;;;12.60;7.80;;;;;;;;;;4347903;33;20158;-61
2020/12/18 02:59:38;;;;;;;11.50;7.12;;;;;;;;;;4349127;32;20509;-61
2020/12/18 03:02:04;;;;;;;9.82;6.70;;;;;;;;;;4348237;32;20086;-61
2020/12/18 03:04:29;;;;;;;11.05;6.87;;;;;;;;;;4332748;33;20435;-62
2020/12/18 03:06:55;;;;;;;;;;;;;;;;;;4330039;33;20064;-61
2020/12/18 03:09:22;;;;;;;10.63;6.78;;;;;;;;;;4333887;33;19989;-62
2020/12/18 03:11:48;;;;;;;10.70;6.55;;;;;;;;;;4333139;33;20456;-61
2020/12/18 03:14:13;;;;;;;10.57;6.80;;;;;;;;;;4334223;33;20071;-62
2020/12/18 03:16:39;;;;;;;11.40;6.80;;;;;;;;;;4320916;33;20091;-62
2020/12/18 03:19:05;;;;;;;9.95;6.57;;;;;;;;;;4320243;33;20059;-62
2020/12/18 03:21:31;;;;;;;10.23;6.62;;;;;;;;;;4320714;33;20086;-62
2020/12/18 03:23:57;;;;;;;11.30;6.70;;;;;;;;;;4333927;33;20084;-61
2020/12/18 03:26:22;;;;;;;;;;;;;;;;;;4334335;33;20090;-61
2020/12/18 03:28:48;;;;;;;9.90;5.95;;;;;;;;;;4332517;33;20389;-61
2020/12/18 03:31:14;;;;;;;10.82;6.65;;;;;;;;;;4343786;33;20509;-62
2020/12/18 03:33:40;;;;;;;10.65;6.10;;;;;;;;;;4348703;33;20089;-62
2020/12/18 03:36:05;;;;;;;9.88;6.65;;;;;;;;;;4346920;33;20461;-63
2020/12/18 03:38:31;;;;;;;10.43;6.15;;;;;;;;;;4347249;33;20097;-61
2020/12/18 03:40:57;;;;;;;;;;;;;;;;;;4335796;33;20067;-60
2020/12/18 03:43:22;;;;;;;10.13;6.28;;;;;;;;;;4348212;32;19969;-63
2020/12/18 03:45:48;;;;;;;9.48;6.05;;;;;;;;;;4348264;32;20070;-62
2020/12/18 03:48:13;;;;;;;;;;;;;;;;;;4348385;32;20082;-62
2020/12/18 03:50:39;;;;;;;12.52;6.32;;;;;;;;;;4348298;33;19990;-62
2020/12/18 03:53:05;;;;;;;9.23;6.18;;;;;;;;;;4348125;32;20082;-62
2020/12/18 03:55:30;;;;;;;;;;;;;;;;;;4347344;33;20456;-62
2020/12/18 03:57:56;;;;;;;9.70;5.78;;;;;;;;;;4335092;33;19990;-63
2020/12/18 04:00:22;;;;;;;9.52;5.82;;;;;;;;;;4347949;32;20078;-62
2020/12/18 04:02:47;;;;;;;;;;;;;;;;;;4346711;32;20184;-62
2020/12/18 04:05:13;;;;;;;8.25;5.28;;;;;;;;;;4347809;32;19973;-61
2020/12/18 04:07:40;;;;;;;9.57;5.85;;;;;;;;;;4347996;33;20075;-61
2020/12/18 04:10:05;;;;;;;9.50;5.82;;;;;;;;;;4334246;33;20079;-62
2020/12/18 04:12:31;;;;;;;8.77;5.90;;;;;;;;;;4334516;33;20448;-61
2020/12/18 04:14:57;;;;;;;10.90;6.07;;;;;;;;;;4348411;32;20086;-62
2020/12/18 04:17:23;;;;;;;9.18;6.15;;;;;;;;;;4346388;33;20534;-61
2020/12/18 04:19:48;;;;;;;;;;;;;;;;;;4346673;33;20078;-62
2020/12/18 04:22:14;;;;;;;8.98;5.87;;;;;;;;;;4348124;32;19988;-62
2020/12/18 04:24:40;;;;;;;9.02;5.65;;;;;;;;;;4346250;33;20102;-62
2020/12/18 04:27:05;;;;;;;;;;;;;;;;;;4346819;32;20473;-62
2020/12/18 04:29:31;;;;;;;9.77;5.82;;;;;;;;;;4348172;33;19963;-62
2020/12/18 04:31:57;;;;;;;9.45;5.90;;;;;;;;;;4347725;33;20504;-61
2020/12/18 04:34:22;;;;;;;9.30;5.80;;;;;;;;;;4347455;32;20505;-61
2020/12/18 04:36:48;;;;;;;9.18;5.87;;;;;;;;;;4333752;33;20161;-62
2020/12/18 04:39:14;;;;;;;10.10;6.07;;;;;;;;;;4346437;33;20078;-61
2020/12/18 04:41:40;;;;;;;9.10;5.87;;;;;;;;;;4347910;32;20143;-61
2020/12/18 04:44:06;;;;;;;9.43;6.00;;;;;;;;;;4347439;32;20285;-62
2020/12/18 04:46:31;;;;;;;9.00;5.57;;;;;;;;;;4333944;33;20448;-61
2020/12/18 04:48:57;;;;;;;9.48;5.57;;;;;;;;;;4345990;33;20459;-62
2020/12/18 04:51:27;;;;;;;8.30;5.20;;;;;;;;;;4347719;32;20174;-62
2020/12/18 04:53:53;;;;;;;8.73;6.05;;;;;;;;;;4345707;33;20442;-63
2020/12/18 04:56:21;;;;;;;8.93;5.72;;;;;;;;;;4345828;33;20155;-62
2020/12/18 04:58:56;;;;;;;8.45;5.55;;;;;;;;;;4346060;33;20079;-61
2020/12/18 05:01:23;;;;;;;10.00;5.62;;;;;;;;;;4347690;32;20193;-62
2020/12/18 05:03:49;;;;;;;8.23;5.37;;;;;;;;;;4358390;32;20122;-61
2020/12/18 05:06:14;;;;;;;8.65;5.12;;;;;;;;;;4347432;33;20085;-61
2020/12/18 05:08:42;;;;;;;;;;;;;;;;;;4333799;33;20509;-62
2020/12/18 05:11:24;;;;;;;8.80;5.00;;;;;;;;;;4347495;32;19978;-61
2020/12/18 05:13:52;;;;;;;8.57;5.22;;;;;;;;;;4346873;32;20164;-61
2020/12/18 05:16:21;;;;;;;8.00;5.00;;;;;;;;;;4345788;33;20071;-62
2020/12/18 05:18:50;;;;;;;7.87;5.18;;;;;;;;;;4333138;33;20653;-62
2020/12/18 05:21:16;;;;;;;8.77;5.18;;;;;;;;;;4345800;33;20102;-62
2020/12/18 05:23:43;;;;;;;8.23;4.95;;;;;;;;;;4333261;33;20152;-61
2020/12/18 05:26:10;;;;;;;7.05;4.55;;;;;;;;;;4333343;33;20521;-62
2020/12/18 05:28:48;;;;;;;7.70;4.68;;;;;;;;;;4345621;33;20504;-62
2020/12/18 05:31:18;;;;;;;6.87;4.80;;;;;;;;;;4346322;32;20169;-62
2020/12/18 05:33:46;;;;;;;7.20;4.85;;;;;;;;;;4345782;33;20580;-60
2020/12/18 05:36:12;;;;;;;8.05;5.18;;;;;;;;;;4346031;32;20078;-61
2020/12/18 05:38:38;;;;;;;9.30;4.70;;;;;;;;;;4345692;33;20062;-62
2020/12/18 05:41:04;;;;;;;6.32;4.40;;;;;;;;;;4345352;33;20469;-62
2020/12/18 05:43:40;;;;;;;6.80;4.37;;;;;;;;;;4345714;33;20071;-62
2020/12/18 05:46:24;;;;;;;7.37;3.97;;;;;;;;;;4345611;33;20063;-61
2020/12/18 05:48:56;;;;;;;6.20;3.87;;;;;;;;;;4346717;32;20075;-64
2020/12/18 05:51:33;;;;;;;6.00;3.97;;;;;;;;;;4345444;33;20441;-62
2020/12/18 05:54:09;;;;;;;5.87;3.65;;;;;;;;;;4333561;33;20082;-62
2020/12/18 05:56:34;;;;;;;7.18;4.35;;;;;;;;;;4346608;32;20079;-62
2020/12/18 05:59:10;;;;;;;5.75;3.55;;;;;;;;;;4346738;32;20513;-62
2020/12/18 06:01:41;;;;;;;6.25;3.53;;;;;;;;;;4333391;33;20066;-62
2020/12/18 06:04:17;;;;;;;6.70;4.00;;;;;;;;;;4332926;33;20079;-61
2020/12/18 06:06:50;;;;;;;6.68;3.85;;;;;;;;;;4332989;33;20554;-61
2020/12/18 06:09:20;;;;;;;6.03;3.83;;;;;;;;;;4347531;33;20509;-64
2020/12/18 06:11:46;;;;;;;6.05;3.60;;;;;;;;;;4349367;33;20154;-61
2020/12/18 06:14:13;;;;;;;5.93;4.22;;;;;;;;;;4346551;32;20083;-61
2020/12/18 06:16:43;;;;;;;6.53;4.18;;;;;;;;;;4346063;32;20055;-61
2020/12/18 06:19:09;;;;;;;5.82;3.90;;;;;;;;;;4344989;33;20081;-61
2020/12/18 06:21:35;;;;;;;6.50;4.28;;;;;;;;;;4345241;33;20075;-63
2020/12/18 06:24:01;;;;;;;6.82;4.47;;;;;;;;;;4332561;33;20461;-62
2020/12/18 06:26:27;;;;;;;7.05;4.20;;;;;;;;;;4347739;32;20126;-61
2020/12/18 06:28:53;;;;;;;6.10;4.50;;;;;;;;;;4348141;33;20081;-61
2020/12/18 06:31:27;;;;;;;6.65;4.90;;;;;;;;;;4347621;33;20565;-61
2020/12/18 06:33:54;;;;;;;7.45;4.82;;;;;;;;;;4359694;32;20075;-61
2020/12/18 06:36:48;;;;;;;7.37;4.90;;;;;;;;;;4345289;32;20451;-63
2020/12/18 06:39:24;;;;;;;6.45;4.47;;;;;;;;;;4346102;32;20188;-63
2020/12/18 06:42:13;;;;;;;6.85;4.80;;;;;;;;;;4334875;32;20091;-62
2020/12/18 06:44:40;;;;;;;7.50;4.82;;;;;;;;;;4346171;32;20067;-64
2020/12/18 06:47:26;;;;;;;6.18;3.80;;;;;;;;;;4337839;32;20162;-63
2020/12/18 06:49:56;;;;;;;5.68;3.85;;;;;;;;;;4349023;32;20067;-63
2020/12/18 06:52:44;;;;;;;6.18;4.10;;;;;;;;;;4347147;32;20477;-62
2020/12/18 06:55:31;;;;;;;5.20;4.07;;;;;;;;;;4345162;33;20106;-63
2020/12/18 07:00:37;;;;;;;7.15;4.40;;;;;;;;;;4346804;32;20091;-61
2020/12/18 07:03:04;;;;;;;6.85;4.07;;;;;;;;;;4341685;32;20067;-62
2020/12/18 07:05:40;;;;;;;6.32;4.40;;;;;;;;;;4322346;33;20493;-64
2020/12/18 07:08:10;;;;;;;7.90;4.65;;;;;;;;;;4344733;32;20077;-63
2020/12/18 07:10:40;;;;;;;7.35;5.10;;;;;;;;;;4307510;33;20079;-62
2020/12/18 07:13:07;;;;;;;6.40;4.68;;;;;;;;;;4344425;32;20540;-63
2020/12/18 07:16:03;;;;;;;8.45;5.32;;;;;;;;;;4345389;32;20683;-63
2020/12/18 07:18:30;;;;;;;8.43;5.68;;;;;;;;;;4337576;33;20122;-61
2020/12/18 07:21:12;;;;;;;8.82;6.30;;;;;;;;;;4341530;32;20441;-62
2020/12/18 07:23:42;;;;;;;9.20;5.80;;;;;;;;;;4333191;32;20064;-62
2020/12/18 07:26:08;;;;;;;8.77;6.30;;;;;;;;;;4333730;33;20067;-62
2020/12/18 07:28:39;;;;;;;7.78;5.78;;;;;;;;;;4346181;32;20059;-62
2020/12/18 07:31:06;;;;;;;9.77;6.10;;;;;;;;;;4343362;32;20152;-62
2020/12/18 07:33:32;;;;;;;9.43;6.40;;;;;;;;;;4332402;33;20082;-62
2020/12/18 07:35:57;;;;;;;10.18;5.93;;;;;;;;;;4346421;32;20151;-63
2020/12/18 07:38:28;;;;;;;9.55;5.97;;;;;;;;;;4343817;32;20093;-62
2020/12/18 07:40:55;;;;;;;7.32;5.07;;;;;;;;;;4343169;33;20110;-63
2020/12/18 07:43:23;;;;;;;9.25;4.57;;;;;;;;;;4344839;32;20066;-64
2020/12/18 07:45:51;;;;;;;6.62;4.37;;;;;;;;;;4348361;32;20573;-65
2020/12/18 07:48:18;;;;;;;6.37;4.45;;;;;;;;;;4340618;32;20089;-63
2020/12/18 07:51:03;;;;;;;5.55;3.53;;;;;;;;;;4345107;32;20102;-64
2020/12/18 07:53:33;;;;;;;5.40;3.70;;;;;;;;;;4344852;33;20087;-63
2020/12/18 07:56:19;;;;;;;5.30;3.75;;;;;;;;;;4332434;33;20516;-62
2020/12/18 07:58:48;;;;;;;5.12;3.60;;;;;;;;;;4344740;32;20087;-64
2020/12/18 08:01:16;;;;;;;5.47;3.75;;;;;;;;;;4345816;32;20109;-62
2020/12/18 08:04:11;;;;;;;4.97;3.70;;;;;;;;;;4324354;33;20110;-62
2020/12/18 08:06:43;;;;;;;5.72;4.10;;;;;;;;;;4331032;32;20099;-61
2020/12/18 08:09:11;;;;;;;5.22;3.70;;;;;;;;;;4343921;33;20087;-63
2020/12/18 08:11:45;;;;;;;6.72;4.65;;;;;;;;;;4349754;32;20110;-62
2020/12/18 08:14:12;;;;;;;4.43;3.42;;;;;;;;;;4332666;32;20493;-63
2020/12/18 08:16:38;;;;;;;4.90;3.30;;;;;;;;;;4346124;32;20195;-62
2020/12/18 08:19:06;;;;;;;5.37;3.35;;;;;;;;;;4344452;32;20110;-61
2020/12/18 08:21:36;;;;;;;4.10;3.17;;;;;;;;;;4344148;32;20110;-62
2020/12/18 08:24:24;;;;;;;6.18;4.00;;;;;;;;;;4340096;32;21188;-63
2020/12/18 08:27:09;;;;;;;11.15;3.50;;;;;;;;;;4344949;32;20071;-63
2020/12/18 08:29:35;;;;;;;9.27;4.37;;;;;;;;;;4343223;32;20187;-63
2020/12/18 08:32:02;;;;;;;7.43;4.15;;;;;;;;;;4345471;32;20571;-62
2020/12/18 08:34:32;;;;;;;7.62;4.05;;;;;;;;;;4341485;32;20157;-61
2020/12/18 08:36:58;;;;;;;6.43;4.43;;;;;;;;;;4339795;32;20241;-62
2020/12/18 08:39:28;;;;;;;7.50;4.35;;;;;;;;;;4352013;32;20096;-62
2020/12/18 08:41:54;;;;;;;7.47;4.05;;;;;;;;;;4344754;32;20073;-64
2020/12/18 08:44:27;;;;;;;11.25;4.25;;;;;;;;;;4343503;32;20082;-64
2020/12/18 08:46:52;;;;;;;8.02;4.18;;;;;;;;;;4345512;32;20599;-62
2020/12/18 08:49:22;;;;;;;6.22;3.62;;;;;;;;;;4343852;32;20068;-65
2020/12/18 08:51:49;;;;;;;6.28;3.58;;;;;;;;;;4345064;32;20117;-63
2020/12/18 08:54:28;;;;;;;6.65;3.67;;;;;;;;;;4334091;32;20079;-63
2020/12/18 08:57:22;;;;;;;8.25;4.82;;;;;;;;;;4345427;32;20090;-62
2020/12/18 09:00:17;;;;;;;9.98;3.67;;;;;;;;;;4344496;33;20091;-63
2020/12/18 09:02:45;;;;;;;8.68;4.22;;;;;;;;;;4342739;32;20075;-62
2020/12/18 09:05:11;;;;;;;12.15;4.32;;;;;;;;;;4326518;33;20079;-62
2020/12/18 09:07:40;;;;;;;12.63;4.80;;;;;;;;;;4346265;32;20110;-61
2020/12/18 09:10:07;;;;;;;10.48;4.00;;;;;;;;;;4343313;32;20303;-61
2020/12/18 09:12:43;;;;;;;8.68;4.22;;;;;;;;;;4333088;33;20106;-64
2020/12/18 09:15:25;;;;;;;9.27;4.78;;;;;;;;;;4355432;32;20150;-61
2020/12/18 09:18:11;;;;;;;6.97;2.70;;;;;;;;;;4338697;33;20138;-61
2020/12/18 09:20:38;;;;;;;6.35;3.30;;;;;;;;;;4342905;32;20083;-61
2020/12/18 09:23:09;;;;;;;9.93;3.20;;;;;;;;;;4345309;32;20106;-62
2020/12/18 09:25:39;;;;;;;6.50;2.75;;;;;;;;;;4346388;32;20070;-61
2020/12/18 09:28:09;;;;;;;5.78;3.15;;;;;;;;;;4346976;32;20528;-62
2020/12/18 09:30:35;;;;;;;4.95;2.70;;;;;;;;;;4343224;32;20555;-61
2020/12/18 09:33:11;;;;;;;5.55;2.70;;;;;;;;;;4341757;32;20087;-61
2020/12/18 09:35:36;;;;;;;7.53;2.80;;;;;;;;;;4345162;32;20506;-60
2020/12/18 09:38:02;;;;;;;5.93;2.72;;;;;;;;;;4343274;32;20081;-59
2020/12/18 09:40:28;;;;;;;3.22;2.20;;;;;;;;;;4341670;32;20494;-62
2020/12/18 09:42:55;;;;;;;4.15;2.55;;;;;;;;;;4344285;32;20074;-61
2020/12/18 09:45:21;;;;;;;5.87;2.75;;;;;;;;;;4345767;32;20071;-62
2020/12/18 09:47:46;;;;;;;3.78;2.53;;;;;;;;;;4352026;32;20075;-63
2020/12/18 09:50:12;;;;;;;4.75;2.40;;;;;;;;;;4344711;32;20089;-63
2020/12/18 09:52:38;;;;;;;4.68;2.70;;;;;;;;;;4349271;32;20145;-63
2020/12/18 09:55:03;;;;;;;5.12;2.50;;;;;;;;;;4344569;32;20106;-61
2020/12/18 09:57:29;;;;;;;4.28;2.87;;;;;;;;;;4330461;33;20574;-62
2020/12/18 09:59:55;;;;;;;3.28;2.25;;;;;;;;;;4340481;32;20146;-60
2020/12/18 10:02:21;;;;;;;5.80;2.50;;;;;;;;;;4340719;32;20509;-62
2020/12/18 10:04:46;;;;;;;3.80;2.25;;;;;;;;;;4342020;32;20074;-62
2020/12/18 10:07:12;;;;;;;4.20;2.55;;;;;;;;;;4340338;32;20520;-63
2020/12/18 10:09:38;;;;;;;4.53;3.08;;;;;;;;;;4338162;32;20070;-62
2020/12/18 10:12:03;;;;;;;6.00;3.10;;;;;;;;;;4346608;32;20151;-64
2020/12/18 10:14:29;;;;;;;6.07;3.60;;;;;;;;;;4345109;32;20158;-64
2020/12/18 10:16:55;;;;;;;4.68;2.95;;;;;;;;;;4341363;32;20115;-62
2020/12/18 10:19:20;;;;;;;6.50;3.05;;;;;;;;;;4344245;32;20073;-62
2020/12/18 10:21:46;;;;;;;5.00;3.10;;;;;;;;;;4343188;32;20132;-62
2020/12/18 10:24:12;;;;;;;5.03;3.22;;;;;;;;;;4345654;32;20142;-63
2020/12/18 10:26:38;;;;;;;4.78;3.12;;;;;;;;;;4342589;32;20177;-61
2020/12/18 10:29:03;;;;;;;4.90;3.35;;;;;;;;;;4330215;33;20129;-62
2020/12/18 10:31:29;;;;;;;4.85;3.22;;;;;;;;;;4342474;32;20077;-64
2020/12/18 10:33:55;;;;;;;4.78;3.37;;;;;;;;;;4345497;32;20498;-63
2020/12/18 10:36:21;;;;;;;4.18;3.25;;;;;;;;;;4344813;32;20083;-62
2020/12/18 10:38:46;;;;;;;6.43;3.10;;;;;;;;;;4345520;32;20090;-62
2020/12/18 10:41:12;;;;;;;4.70;3.10;;;;;;;;;;4332381;33;20194;-62
2020/12/18 10:43:38;;;;;;;3.58;2.78;;;;;;;;;;4343072;32;20172;-61
2020/12/18 10:46:03;;;;;;;4.70;3.08;;;;;;;;;;4341716;32;20645;-62
2020/12/18 10:48:29;;;;;;;5.75;3.30;;;;;;;;;;4346171;32;20082;-62
2020/12/18 10:50:55;;;;;;;6.47;4.00;;;;;;;;;;4332730;33;20205;-63
2020/12/18 10:53:21;;;;;;;4.75;3.55;;;;;;;;;;4343967;32;20196;-64
2020/12/18 10:55:48;;;;;;;4.25;2.87;;;;;;;;;;4340086;32;20170;-61
2020/12/18 10:58:13;;;;;;;4.85;3.10;;;;;;;;;;4341414;32;20113;-62
2020/12/18 11:00:40;;;;;;;5.45;3.10;;;;;;;;;;4346338;32;20575;-63
2020/12/18 11:03:06;;;;;;;4.03;2.92;;;;;;;;;;4342356;33;20075;-62
2020/12/18 11:05:32;;;;;;;4.90;2.30;;;;;;;;;;4331864;33;20465;-61
2020/12/18 11:07:58;;;;;;;3.80;2.70;;;;;;;;;;4342768;32;20090;-61
2020/12/18 11:10:24;;;;;;;4.18;2.15;;;;;;;;;;4342801;32;20074;-62
2020/12/18 11:12:49;;;;;;;4.22;3.12;;;;;;;;;;4345224;32;20517;-63
2020/12/18 11:15:15;;;;;;;4.18;3.12;;;;;;;;;;4346106;32;20081;-61
2020/12/18 11:17:41;;;;;;;4.15;3.05;;;;;;;;;;4344359;32;20446;-64
2020/12/18 11:20:07;;;;;;;4.10;3.17;;;;;;;;;;4340417;32;20075;-63
2020/12/18 11:22:33;;;;;;;5.22;3.53;;;;;;;;;;4334626;33;20158;-63
2020/12/18 11:25:00;;;;;;;4.32;3.60;;;;;;;;;;4331939;33;20082;-64
2020/12/18 11:27:28;;;;;;;5.45;4.18;;;;;;;;;;4342044;32;20160;-64
2020/12/18 11:29:53;;;;;;;4.80;3.50;;;;;;;;;;4345848;32;20103;-64
2020/12/18 11:32:19;;;;;;;5.85;4.22;;;;;;;;;;4350724;32;20082;-63
2020/12/18 11:34:45;;;;;;;5.18;3.50;;;;;;;;;;4345864;32;20083;-64
2020/12/18 11:37:10;;;;;;;6.32;3.53;;;;;;;;;;4351948;32;20178;-64
2020/12/18 11:39:36;;;;;;;5.35;4.20;;;;;;;;;;4345138;32;20078;-63
2020/12/18 11:42:02;;;;;;;5.43;3.87;;;;;;;;;;4347235;32;20158;-62
2020/12/18 11:44:28;;;;;;;5.50;4.00;;;;;;;;;;4343898;32;20146;-63
2020/12/18 11:46:53;;;;;;;6.32;4.35;;;;;;;;;;4342429;32;20529;-62
2020/12/18 11:49:19;;;;;;;7.15;4.37;;;;;;;;;;4343802;32;20142;-64
2020/12/18 11:51:45;;;;;;;5.80;3.83;;;;;;;;;;4346407;33;20094;-62
2020/12/18 11:54:10;;;;;;;5.70;3.67;;;;;;;;;;4339526;32;20071;-63
2020/12/18 11:56:36;;;;;;;4.97;3.85;;;;;;;;;;4347534;32;20086;-62
2020/12/18 11:59:02;;;;;;;4.37;2.80;;;;;;;;;;4344410;32;20147;-62
2020/12/18 12:01:28;;;;;;;4.15;2.35;;;;;;;;;;4342420;32;20204;-63
2020/12/18 12:03:54;;;;;;;5.03;3.72;;;;;;;;;;4331159;32;20067;-63
2020/12/18 12:06:20;;;;;;;6.00;3.37;;;;;;;;;;4346706;32;20145;-63
2020/12/18 12:08:46;;;;;;;5.97;3.75;;;;;;;;;;4347571;32;20066;-63
2020/12/18 12:11:12;;;;;;;6.68;4.80;;;;;;;;;;4344139;32;20098;-62
2020/12/18 12:13:39;;;;;;;4.80;3.50;;;;;;;;;;4346192;33;20085;-61
2020/12/18 12:16:05;;;;;;;7.85;4.93;;;;;;;;;;4342449;32;20482;-62
2020/12/18 12:18:30;;;;;;;5.35;3.95;;;;;;;;;;4337776;32;20085;-62
2020/12/18 12:20:56;;;;;;;6.37;4.57;;;;;;;;;;4347791;32;20071;-62
2020/12/18 12:23:22;;;;;;;5.93;4.22;;;;;;;;;;4353633;32;20082;-62
2020/12/18 12:25:47;;;;;;;7.93;5.20;;;;;;;;;;4326944;32;20505;-63
2020/12/18 12:28:13;;;;;;;8.00;4.60;;;;;;;;;;4347193;32;20086;-63
2020/12/18 12:30:39;;;;;;;8.77;5.12;;;;;;;;;;4346534;32;20179;-63
2020/12/18 12:33:05;;;;;;;8.88;5.35;;;;;;;;;;4342866;32;20441;-61
2020/12/18 12:35:30;;;;;;;6.10;4.40;;;;;;;;;;4345753;32;20074;-62
2020/12/18 12:37:56;;;;;;;7.55;4.90;;;;;;;;;;4346903;32;20079;-61
2020/12/18 12:40:22;;;;;;;6.05;4.20;;;;;;;;;;4347209;32;20449;-60
2020/12/18 12:42:48;;;;;;;5.85;4.20;;;;;;;;;;4346545;32;20090;-62
2020/12/18 12:45:13;;;;;;;5.70;4.45;;;;;;;;;;4346646;33;20113;-61
2020/12/18 12:47:39;;;;;;;6.00;4.28;;;;;;;;;;4344933;32;20075;-62
2020/12/18 12:50:05;;;;;;;5.65;4.10;;;;;;;;;;4345696;32;20162;-63
2020/12/18 12:52:31;;;;;;;7.12;4.70;;;;;;;;;;4343222;33;20071;-60
2020/12/18 12:54:57;;;;;;;6.12;4.50;;;;;;;;;;4338497;32;20189;-63
2020/12/18 12:57:23;;;;;;;5.30;4.18;;;;;;;;;;4347148;32;20083;-63
2020/12/18 12:59:48;;;;;;;5.30;4.10;;;;;;;;;;4345488;33;20075;-64
2020/12/18 13:02:14;;;;;;;5.95;4.22;;;;;;;;;;4344265;32;20086;-62
2020/12/18 13:04:40;;;;;;;5.78;3.90;;;;;;;;;;4344656;33;20160;-62
2020/12/18 13:07:05;;;;;;;6.35;4.07;;;;;;;;;;4346647;32;20087;-62
2020/12/18 13:09:31;;;;;;;5.80;4.25;;;;;;;;;;4331080;33;20086;-60
2020/12/18 13:11:57;;;;;;;9.32;4.07;;;;;;;;;;4344255;32;20496;-60
2020/12/18 13:14:23;;;;;;;5.87;3.90;;;;;;;;;;4349810;32;20433;-62
2020/12/18 13:16:49;;;;;;;5.57;3.95;;;;;;;;;;4345673;33;20055;-61
2020/12/18 13:19:14;;;;;;;;;;;;;;;;;;4333173;33;20150;-60
2020/12/18 13:21:40;;;;;;;6.40;4.07;;;;;;;;;;4346538;32;19977;-62
2020/12/18 13:24:06;;;;;;;;;;;;;;;;;;4345639;33;20608;-61
2020/12/18 13:26:32;;;;;;;6.80;4.37;;;;;;;;;;4346629;32;19970;-61
2020/12/18 13:28:58;;;;;;;;;;;;;;;;;;4335334;32;20174;-62
2020/12/18 13:31:24;;;;;;;7.12;4.65;;;;;;;;;;4351081;32;20401;-62
2020/12/18 13:33:49;;;;;;;;;;;;;;;;;;4357943;32;20142;-64
2020/12/18 13:36:16;;;;;;;8.63;5.28;;;;;;;;;;4344967;32;20385;-61
2020/12/18 13:38:43;;;;;;;7.95;5.00;;;;;;;;;;4344524;33;20074;-63
2020/12/18 13:41:09;;;;;;;6.43;4.47;;;;;;;;;;4347670;32;20442;-63
2020/12/18 13:43:34;;;;;;;;;;;;;;;;;;4348794;32;20220;-64
2020/12/18 13:46:00;;;;;;;7.80;5.35;;;;;;;;;;4349156;33;20347;-62
2020/12/18 13:48:26;;;;;;;;;;;;;;;;;;4349376;32;20516;-62
2020/12/18 13:50:51;;;;;;;6.25;4.97;;;;;;;;;;4346992;32;20015;-62
2020/12/18 13:53:17;;;;;;;8.52;5.50;;;;;;;;;;4331903;33;20083;-63
2020/12/18 13:55:43;;;;;;;8.10;5.43;;;;;;;;;;4330682;33;20234;-63
2020/12/18 13:58:09;;;;;;;6.90;5.22;;;;;;;;;;4345935;32;20075;-66
2020/12/18 14:00:35;;;;;;;5.78;4.18;;;;;;;;;;4332707;33;20065;-66
2020/12/18 14:03:01;;;;;;;6.22;3.75;;;;;;;;;;4338622;33;20094;-64
2020/12/18 14:05:26;;;;;;;5.78;4.32;;;;;;;;;;4330180;33;20106;-63
2020/12/18 14:07:52;;;;;;;5.82;4.55;;;;;;;;;;4327233;33;20198;-63
2020/12/18 14:10:18;;;;;;;6.35;4.57;;;;;;;;;;4317338;33;20091;-64
2020/12/18 14:12:43;;;;;;;5.35;4.28;;;;;;;;;;4329678;33;20079;-65
2020/12/18 14:15:09;;;;;;;4.95;3.78;;;;;;;;;;4316576;33;20156;-65
2020/12/18 14:17:35;;;;;;;6.72;4.65;;;;;;;;;;4318752;33;20094;-64
2020/12/18 14:20:01;;;;;;;6.68;4.15;;;;;;;;;;4335255;33;20180;-64
2020/12/18 14:22:26;;;;;;;6.70;4.90;;;;;;;;;;4330671;33;20087;-65
2020/12/18 14:24:52;;;;;;;7.00;5.10;;;;;;;;;;4327505;33;20106;-64
2020/12/18 14:27:18;;;;;;;6.40;4.00;;;;;;;;;;4327980;33;20106;-64
2020/12/18 14:29:44;;;;;;;6.22;5.00;;;;;;;;;;4330026;33;20079;-63
2020/12/18 14:32:10;;;;;;;7.47;4.85;;;;;;;;;;4346550;32;20086;-64
2020/12/18 14:34:37;;;;;;;7.45;4.95;;;;;;;;;;4344962;32;20094;-63
2020/12/18 14:37:08;;;;;;;7.00;5.20;;;;;;;;;;4345537;33;20085;-63
2020/12/18 14:39:34;;;;;;;7.60;5.15;;;;;;;;;;4346869;32;20063;-63
2020/12/18 14:42:00;;;;;;;8.07;5.18;;;;;;;;;;4345037;33;20083;-64
2020/12/18 14:44:25;;;;;;;7.55;4.78;;;;;;;;;;4346418;32;20074;-64
2020/12/18 14:46:51;;;;;;;9.18;5.60;;;;;;;;;;4346504;32;20152;-63
2020/12/18 14:49:17;;;;;;;7.82;5.20;;;;;;;;;;4348275;33;20086;-63
2020/12/18 14:51:43;;;;;;;7.28;5.87;;;;;;;;;;4347856;33;20150;-63